createdAt,value
2022-09-26T00:04:32.632Z,10.9
2022-09-26T00:09:15.283Z,10.9
2022-09-26T00:14:21.640Z,10.8
2022-09-26T00:19:28.112Z,10.8
2022-09-26T00:24:54.660Z,10.8
2022-09-26T00:29:41.112Z,10.7
2022-09-26T00:34:47.405Z,10.7
2022-09-26T00:39:53.773Z,10.7
2022-09-26T00:45:00.254Z,10.7
2022-09-26T00:50:06.512Z,10.7
2022-09-26T01:00:19.444Z,10.7
2022-09-26T01:05:25.819Z,10.7
2022-09-26T01:10:32.203Z,10.7
2022-09-26T01:15:58.727Z,10.7
2022-09-26T01:20:59.008Z,10.7
2022-09-26T01:25:51.449Z,10.7
2022-09-26T01:31:18.038Z,10.7
2022-09-26T01:36:24.337Z,10.7
2022-09-26T01:41:10.704Z,10.7
2022-09-26T01:46:17.156Z,10.7
2022-09-26T01:51:23.489Z,10.7
2022-09-26T01:56:19.844Z,10.6
2022-09-26T02:01:26.330Z,10.6
2022-09-26T02:06:42.841Z,10.6
2022-09-26T02:11:49.192Z,10.6
2022-09-26T02:17:15.616Z,10.6
2022-09-26T02:22:22.026Z,10.6
2022-09-26T02:27:08.350Z,10.6
2022-09-26T02:32:14.770Z,10.6
2022-09-26T02:37:11.157Z,10.6
2022-09-26T02:42:27.700Z,10.6
2022-09-26T02:47:34.061Z,10.6
2022-09-26T02:52:40.429Z,10.6
2022-09-26T02:58:06.878Z,10.7
2022-09-26T03:02:53.187Z,10.7
2022-09-26T03:07:59.561Z,10.7
2022-09-26T03:13:05.952Z,10.7
2022-09-26T03:18:31.379Z,10.8
2022-09-26T03:23:18.722Z,10.8
2022-09-26T03:28:15.082Z,10.8
2022-09-26T03:33:31.476Z,10.8
2022-09-26T03:38:37.953Z,10.8
2022-09-26T03:44:04.405Z,10.8
2022-09-26T03:48:50.753Z,10.8
2022-09-26T03:53:57.343Z,10.9
2022-09-26T03:59:03.796Z,10.9
2022-09-26T04:04:10.195Z,10.9
2022-09-26T04:09:17.339Z,10.9
2022-09-26T04:14:46.997Z,10.9
2022-09-26T04:19:29.315Z,10.9
2022-09-26T04:34:48.436Z,11.0
2022-09-26T04:39:54.865Z,11.0
2022-09-26T04:45:02.807Z,11.0
2022-09-26T04:50:12.392Z,11.0
2022-09-26T04:55:18.903Z,11.0
2022-09-26T05:06:26.767Z,11.0
2022-09-26T05:11:14.127Z,11.0
2022-09-26T05:16:20.579Z,11.0
2022-09-26T05:21:26.881Z,11.0
2022-09-26T05:26:57.349Z,11.0
2022-09-26T05:32:39.796Z,11.0
2022-09-26T05:36:50.065Z,11.0
2022-09-26T05:42:20.524Z,11.0
2022-09-26T05:47:18.851Z,11.0
2022-09-26T05:52:25.305Z,11.0
2022-09-26T06:02:20.911Z,11.0
2022-09-26T06:07:47.589Z,11.0
2022-09-26T06:12:53.975Z,11.0
2022-09-26T06:17:40.380Z,11.1
2022-09-26T06:22:48.285Z,11.1
2022-09-26T06:28:18.712Z,11.1
2022-09-26T06:33:01.154Z,11.1
2022-09-26T06:38:26.509Z,11.1
2022-09-26T06:43:27.868Z,11.1
2022-09-26T06:50:06.556Z,11.2
2022-09-26T06:53:51.752Z,11.2
2022-09-26T06:58:58.136Z,11.3
2022-09-26T07:04:38.614Z,11.3
2022-09-26T07:09:12.488Z,11.4
2022-09-26T07:14:26.387Z,11.5
2022-09-26T07:24:41.797Z,11.6
2022-09-26T07:34:54.481Z,11.6
2022-09-26T07:40:01.975Z,11.6
2022-09-26T07:45:31.533Z,11.7
2022-09-26T07:50:13.909Z,11.7
2022-09-26T07:55:44.343Z,11.7
2022-09-26T08:00:26.656Z,11.7
2022-09-26T08:05:33.017Z,11.7
2022-09-26T08:10:39.394Z,11.7
2022-09-26T08:15:45.865Z,11.8
2022-09-26T08:30:54.995Z,11.9
2022-09-26T08:36:01.315Z,11.9
2022-09-26T08:41:17.715Z,12.0
2022-09-26T08:46:24.272Z,12.1
2022-09-26T08:51:50.619Z,12.1
2022-09-26T08:56:36.960Z,12.2
2022-09-26T09:01:43.543Z,12.2
2022-09-26T09:06:49.738Z,12.3
2022-09-26T09:11:56.340Z,12.3
2022-09-26T09:17:02.743Z,12.4
2022-09-26T09:21:59.079Z,12.4
2022-09-26T09:32:21.909Z,12.4
2022-09-26T09:37:28.245Z,12.4
2022-09-26T09:42:58.655Z,12.4
2022-09-26T09:47:41.025Z,12.4
2022-09-26T09:52:47.374Z,12.4
2022-09-26T09:57:53.855Z,12.4
2022-09-26T10:03:44.481Z,12.4
2022-09-26T10:08:06.753Z,12.4
2022-09-26T10:13:13.158Z,12.4
2022-09-26T10:18:27.416Z,12.5
2022-09-26T10:23:24.940Z,12.5
2022-09-26T10:28:22.261Z,12.5
2022-09-26T10:34:02.732Z,12.5
2022-09-26T10:38:45.087Z,12.5
2022-09-26T10:44:11.476Z,12.5
2022-09-26T10:49:17.848Z,12.5
2022-09-26T10:54:04.385Z,12.5
2022-09-26T10:59:34.757Z,12.5
2022-09-26T11:04:17.249Z,12.4
2022-09-26T11:09:23.485Z,12.4
2022-09-26T11:14:29.832Z,12.3
2022-09-26T11:19:36.228Z,12.3
2022-09-26T11:24:42.662Z,12.3
2022-09-26T11:30:09.143Z,12.3
2022-09-26T11:34:55.585Z,12.3
2022-09-26T11:40:22.248Z,12.3
2022-09-26T11:44:58.416Z,12.2
2022-09-26T11:50:14.839Z,12.2
2022-09-26T11:55:21.227Z,12.3
2022-09-26T12:00:27.724Z,12.3
2022-09-26T12:05:33.989Z,12.3
2022-09-26T12:10:40.358Z,12.3
2022-09-26T12:15:47.849Z,12.4
2022-09-26T12:20:54.252Z,12.4
2022-09-26T12:26:00.634Z,12.5
2022-09-26T12:31:07.096Z,12.5
2022-09-26T12:36:03.396Z,12.6
2022-09-26T12:41:43.847Z,12.7
2022-09-26T12:46:26.322Z,12.8
2022-09-26T12:51:32.574Z,12.8
2022-09-26T12:56:38.956Z,12.9
2022-09-26T13:01:45.491Z,12.9
2022-09-26T13:06:52.646Z,12.9
2022-09-26T13:11:58.100Z,12.9
2022-09-26T13:17:04.492Z,12.9
2022-09-26T13:22:10.851Z,12.9
2022-09-26T13:27:17.228Z,12.9
2022-09-26T13:32:38.290Z,12.9
2022-09-26T13:37:30.636Z,12.9
2022-09-26T13:42:37.008Z,12.9
2022-09-26T13:47:43.403Z,12.8
2022-09-26T13:52:49.857Z,12.8
2022-09-26T13:57:56.241Z,12.7
2022-09-26T14:03:04.880Z,12.7
2022-09-26T14:08:09.031Z,12.6
2022-09-26T14:13:15.427Z,12.6
2022-09-26T14:18:21.933Z,12.5
2022-09-26T14:23:28.425Z,12.5
2022-09-26T14:28:26.817Z,12.4
2022-09-26T14:33:31.274Z,12.5
2022-09-26T14:38:47.728Z,12.4
2022-09-26T14:43:54.226Z,12.4
2022-09-26T14:48:50.621Z,12.4
2022-09-26T14:54:07.090Z,12.4
2022-09-26T14:59:33.423Z,12.3
2022-09-26T15:04:19.787Z,12.3
2022-09-26T15:09:26.176Z,12.3
2022-09-26T15:14:32.570Z,12.2
2022-09-26T15:19:29.035Z,12.2
2022-09-26T15:25:05.573Z,12.2
2022-09-26T15:29:41.873Z,12.2
2022-09-26T15:34:48.283Z,12.2
2022-09-26T15:40:24.766Z,12.1
2022-09-26T15:45:11.065Z,12.2
2022-09-26T15:50:17.518Z,12.1
2022-09-26T15:55:23.885Z,12.1
2022-09-26T16:05:43.238Z,12.1
2022-09-26T16:11:10.711Z,12.0
2022-09-26T16:15:53.123Z,12.0
2022-09-26T16:21:13.564Z,12.0
2022-09-26T16:25:55.837Z,12.0
2022-09-26T16:32:06.425Z,12.0
2022-09-26T16:36:53.831Z,12.0
2022-09-26T16:42:01.139Z,12.0
2022-09-26T16:47:06.576Z,12.0
2022-09-26T16:52:03.047Z,12.0
2022-09-26T17:02:15.880Z,11.9
2022-09-26T17:07:22.286Z,11.9
2022-09-26T17:12:38.686Z,11.9
2022-09-26T17:18:09.151Z,11.9
2022-09-26T17:22:51.491Z,11.9
2022-09-26T17:27:47.839Z,11.9
2022-09-26T17:33:04.263Z,11.8
2022-09-26T17:38:00.667Z,11.8
2022-09-26T17:43:07.020Z,11.8
2022-09-26T17:48:47.449Z,11.8
2022-09-26T17:53:32.652Z,11.8
2022-09-26T17:58:50.199Z,11.8
2022-09-26T18:04:54.678Z,11.8
2022-09-26T18:13:45.323Z,11.8
2022-09-26T18:19:16.679Z,11.7
2022-09-26T18:24:08.118Z,11.7
2022-09-26T18:34:40.932Z,11.7
2022-09-26T18:39:27.296Z,11.7
2022-09-26T18:44:23.848Z,11.7
2022-09-26T18:49:40.245Z,11.7
2022-09-26T18:55:10.707Z,11.7
2022-09-26T18:59:43.013Z,11.7
2022-09-26T19:04:49.401Z,11.7
2022-09-26T19:10:05.802Z,11.6
2022-09-26T19:15:46.381Z,11.6
2022-09-26T19:20:53.649Z,11.6
2022-09-26T19:26:20.068Z,11.6
2022-09-26T19:30:56.475Z,11.6
2022-09-26T19:36:02.776Z,11.6
2022-09-26T19:41:09.419Z,11.6
2022-09-26T19:46:25.880Z,11.6
2022-09-26T19:51:32.148Z,11.6
2022-09-26T19:56:28.500Z,11.6
2022-09-26T20:01:59.001Z,11.6
2022-09-26T20:06:50.320Z,11.6
2022-09-26T20:11:47.673Z,11.6
2022-09-26T20:17:04.190Z,11.6
2022-09-26T20:22:10.469Z,11.6
2022-09-26T20:27:16.842Z,11.6
2022-09-26T20:43:00.058Z,11.5
2022-09-26T20:47:42.468Z,11.5
2022-09-26T20:52:48.794Z,11.6
2022-09-26T20:57:55.162Z,11.5
2022-09-26T21:03:01.630Z,11.5
2022-09-26T21:08:07.911Z,11.5
2022-09-26T21:13:14.418Z,11.5
2022-09-26T21:18:44.972Z,11.5
2022-09-26T21:23:27.272Z,11.5
2022-09-26T21:28:33.663Z,11.5
2022-09-26T21:33:40.024Z,11.5
2022-09-26T21:39:10.610Z,11.5
2022-09-26T21:43:52.828Z,11.5
2022-09-26T21:48:49.285Z,11.5
2022-09-26T21:54:05.677Z,11.5
2022-09-26T21:59:12.159Z,11.5
2022-09-26T22:04:18.422Z,11.4
2022-09-26T22:14:21.172Z,11.4
2022-09-26T22:19:37.522Z,11.4
2022-09-26T22:24:43.896Z,11.4
2022-09-26T22:30:14.339Z,11.4
2022-09-26T22:34:56.777Z,11.4
2022-09-26T22:40:03.145Z,11.4
2022-09-26T22:45:09.555Z,11.3
2022-09-26T22:50:15.943Z,11.3
2022-09-26T22:55:22.295Z,11.3
2022-09-26T23:00:18.663Z,11.3
2022-09-26T23:05:25.096Z,11.3
2022-09-26T23:10:41.546Z,11.3
2022-09-26T23:15:47.925Z,11.3
2022-09-26T23:20:54.328Z,11.3
2022-09-26T23:26:00.670Z,11.2
2022-09-26T23:36:13.465Z,11.2
2022-09-26T23:41:19.846Z,11.2
2022-09-26T23:46:26.395Z,11.2
2022-09-26T23:51:32.714Z,11.2
2022-09-26T23:56:59.085Z,11.2
